sensor_id;sensor_type;location;lat;lon;timestamp;P1;durP1;ratioP1;P2;durP2;ratioP2
57659;SDS011;43485;45.680;15.702;2024-01-25T00:00:45;11.50;;;6.30;;
57659;SDS011;43485;45.680;15.702;2024-01-25T00:03:11;9.10;;;5.53;;
57659;SDS011;43485;45.680;15.702;2024-01-25T00:05:37;14.40;;;7.47;;
57659;SDS011;43485;45.680;15.702;2024-01-25T00:08:03;9.05;;;5.15;;
57659;SDS011;43485;45.680;15.702;2024-01-25T00:10:29;13.55;;;6.53;;
57659;SDS011;43485;45.680;15.702;2024-01-25T00:12:55;7.60;;;4.68;;
57659;SDS011;43485;45.680;15.702;2024-01-25T00:15:22;10.38;;;7.47;;
57659;SDS011;43485;45.680;15.702;2024-01-25T00:17:48;10.38;;;5.35;;
57659;SDS011;43485;45.680;15.702;2024-01-25T00:20:14;13.52;;;7.13;;
57659;SDS011;43485;45.680;15.702;2024-01-25T00:22:42;10.82;;;6.55;;
57659;SDS011;43485;45.680;15.702;2024-01-25T00:25:08;9.13;;;6.60;;
57659;SDS011;43485;45.680;15.702;2024-01-25T00:27:34;13.95;;;9.23;;
57659;SDS011;43485;45.680;15.702;2024-01-25T00:30:00;14.82;;;9.15;;
57659;SDS011;43485;45.680;15.702;2024-01-25T00:32:26;16.45;;;9.88;;
57659;SDS011;43485;45.680;15.702;2024-01-25T00:34:52;13.27;;;7.15;;
57659;SDS011;43485;45.680;15.702;2024-01-25T00:37:19;16.60;;;6.22;;
57659;SDS011;43485;45.680;15.702;2024-01-25T00:39:45;13.82;;;7.72;;
57659;SDS011;43485;45.680;15.702;2024-01-25T00:42:14;13.52;;;9.93;;
57659;SDS011;43485;45.680;15.702;2024-01-25T00:44:41;22.42;;;12.63;;
57659;SDS011;43485;45.680;15.702;2024-01-25T00:47:08;15.02;;;8.70;;
57659;SDS011;43485;45.680;15.702;2024-01-25T00:49:35;17.85;;;7.78;;
57659;SDS011;43485;45.680;15.702;2024-01-25T00:52:02;11.98;;;6.80;;
57659;SDS011;43485;45.680;15.702;2024-01-25T00:54:29;12.00;;;5.95;;
57659;SDS011;43485;45.680;15.702;2024-01-25T00:56:56;8.50;;;5.35;;
57659;SDS011;43485;45.680;15.702;2024-01-25T00:59:22;8.93;;;4.85;;
57659;SDS011;43485;45.680;15.702;2024-01-25T01:01:49;13.88;;;6.47;;
57659;SDS011;43485;45.680;15.702;2024-01-25T01:04:18;11.88;;;4.45;;
57659;SDS011;43485;45.680;15.702;2024-01-25T01:06:45;10.48;;;4.63;;
57659;SDS011;43485;45.680;15.702;2024-01-25T01:09:13;7.13;;;4.57;;
57659;SDS011;43485;45.680;15.702;2024-01-25T01:11:39;15.38;;;5.18;;
57659;SDS011;43485;45.680;15.702;2024-01-25T01:14:05;15.70;;;6.40;;
57659;SDS011;43485;45.680;15.702;2024-01-25T01:16:31;5.13;;;2.80;;
57659;SDS011;43485;45.680;15.702;2024-01-25T01:18:58;8.25;;;4.18;;
57659;SDS011;43485;45.680;15.702;2024-01-25T01:24:16;4.30;;;2.08;;
57659;SDS011;43485;45.680;15.702;2024-01-25T01:26:42;5.78;;;3.95;;
57659;SDS011;43485;45.680;15.702;2024-01-25T01:29:09;4.90;;;3.05;;
57659;SDS011;43485;45.680;15.702;2024-01-25T01:31:35;4.75;;;3.13;;
57659;SDS011;43485;45.680;15.702;2024-01-25T01:34:01;6.45;;;3.47;;
57659;SDS011;43485;45.680;15.702;2024-01-25T01:36:27;6.80;;;2.97;;
57659;SDS011;43485;45.680;15.702;2024-01-25T01:38:54;5.30;;;3.70;;
57659;SDS011;43485;45.680;15.702;2024-01-25T01:41:20;5.40;;;3.38;;
57659;SDS011;43485;45.680;15.702;2024-01-25T01:43:46;6.00;;;3.50;;
57659;SDS011;43485;45.680;15.702;2024-01-25T01:46:16;5.78;;;3.45;;
57659;SDS011;43485;45.680;15.702;2024-01-25T01:51:50;5.38;;;2.70;;
57659;SDS011;43485;45.680;15.702;2024-01-25T01:54:17;13.27;;;3.45;;
57659;SDS011;43485;45.680;15.702;2024-01-25T01:56:43;3.17;;;2.10;;
57659;SDS011;43485;45.680;15.702;2024-01-25T01:59:10;10.35;;;4.60;;
57659;SDS011;43485;45.680;15.702;2024-01-25T02:04:03;7.60;;;4.38;;
57659;SDS011;43485;45.680;15.702;2024-01-25T02:06:30;6.57;;;3.13;;
57659;SDS011;43485;45.680;15.702;2024-01-25T02:08:56;5.22;;;3.45;;
57659;SDS011;43485;45.680;15.702;2024-01-25T02:11:24;7.28;;;4.50;;
57659;SDS011;43485;45.680;15.702;2024-01-25T02:13:51;7.45;;;3.83;;
57659;SDS011;43485;45.680;15.702;2024-01-25T02:16:17;7.28;;;3.75;;
57659;SDS011;43485;45.680;15.702;2024-01-25T02:18:45;4.63;;;3.58;;
57659;SDS011;43485;45.680;15.702;2024-01-25T02:21:12;4.82;;;3.35;;
57659;SDS011;43485;45.680;15.702;2024-01-25T02:23:39;8.50;;;5.25;;
57659;SDS011;43485;45.680;15.702;2024-01-25T02:26:05;9.68;;;3.30;;
57659;SDS011;43485;45.680;15.702;2024-01-25T02:28:31;9.00;;;4.10;;
57659;SDS011;43485;45.680;15.702;2024-01-25T02:30:58;6.00;;;3.05;;
57659;SDS011;43485;45.680;15.702;2024-01-25T02:33:26;5.35;;;3.42;;
57659;SDS011;43485;45.680;15.702;2024-01-25T02:35:52;6.82;;;4.45;;
57659;SDS011;43485;45.680;15.702;2024-01-25T02:38:18;8.07;;;4.50;;
57659;SDS011;43485;45.680;15.702;2024-01-25T02:40:44;7.10;;;3.40;;
57659;SDS011;43485;45.680;15.702;2024-01-25T02:43:10;7.78;;;4.85;;
57659;SDS011;43485;45.680;15.702;2024-01-25T02:45:36;7.43;;;3.13;;
57659;SDS011;43485;45.680;15.702;2024-01-25T02:48:02;9.00;;;4.40;;
57659;SDS011;43485;45.680;15.702;2024-01-25T02:50:29;8.25;;;4.60;;
57659;SDS011;43485;45.680;15.702;2024-01-25T02:52:55;11.23;;;4.15;;
57659;SDS011;43485;45.680;15.702;2024-01-25T02:55:22;6.90;;;4.18;;
57659;SDS011;43485;45.680;15.702;2024-01-25T02:57:48;11.05;;;3.83;;
57659;SDS011;43485;45.680;15.702;2024-01-25T03:02:40;14.27;;;5.43;;
57659;SDS011;43485;45.680;15.702;2024-01-25T03:05:07;14.35;;;5.53;;
57659;SDS011;43485;45.680;15.702;2024-01-25T03:07:33;6.18;;;3.92;;
57659;SDS011;43485;45.680;15.702;2024-01-25T03:09:59;9.05;;;5.30;;
57659;SDS011;43485;45.680;15.702;2024-01-25T03:12:25;14.75;;;6.47;;
57659;SDS011;43485;45.680;15.702;2024-01-25T03:14:51;6.70;;;3.80;;
57659;SDS011;43485;45.680;15.702;2024-01-25T03:17:17;7.07;;;3.63;;
57659;SDS011;43485;45.680;15.702;2024-01-25T03:19:43;4.25;;;2.50;;
57659;SDS011;43485;45.680;15.702;2024-01-25T03:22:09;6.93;;;3.45;;
57659;SDS011;43485;45.680;15.702;2024-01-25T03:27:20;5.50;;;3.03;;
57659;SDS011;43485;45.680;15.702;2024-01-25T03:29:46;3.35;;;1.85;;
57659;SDS011;43485;45.680;15.702;2024-01-25T03:32:12;5.28;;;2.13;;
57659;SDS011;43485;45.680;15.702;2024-01-25T03:34:38;2.92;;;2.35;;
57659;SDS011;43485;45.680;15.702;2024-01-25T03:37:04;5.72;;;2.95;;
57659;SDS011;43485;45.680;15.702;2024-01-25T03:39:31;9.63;;;2.22;;
57659;SDS011;43485;45.680;15.702;2024-01-25T03:41:57;12.13;;;4.07;;
57659;SDS011;43485;45.680;15.702;2024-01-25T03:44:23;5.93;;;2.55;;
57659;SDS011;43485;45.680;15.702;2024-01-25T03:46:49;9.43;;;2.08;;
57659;SDS011;43485;45.680;15.702;2024-01-25T03:49:15;6.15;;;3.13;;
57659;SDS011;43485;45.680;15.702;2024-01-25T03:54:07;3.50;;;2.63;;
57659;SDS011;43485;45.680;15.702;2024-01-25T03:56:33;9.68;;;3.90;;
57659;SDS011;43485;45.680;15.702;2024-01-25T03:58:59;7.35;;;4.57;;
57659;SDS011;43485;45.680;15.702;2024-01-25T04:01:25;4.65;;;2.47;;
57659;SDS011;43485;45.680;15.702;2024-01-25T04:03:51;9.00;;;4.32;;
57659;SDS011;43485;45.680;15.702;2024-01-25T04:06:17;5.35;;;2.53;;
57659;SDS011;43485;45.680;15.702;2024-01-25T04:08:44;6.45;;;3.25;;
57659;SDS011;43485;45.680;15.702;2024-01-25T04:11:10;4.47;;;2.60;;
57659;SDS011;43485;45.680;15.702;2024-01-25T04:13:38;5.90;;;3.53;;
57659;SDS011;43485;45.680;15.702;2024-01-25T04:16:06;6.18;;;3.15;;
57659;SDS011;43485;45.680;15.702;2024-01-25T04:18:32;4.25;;;2.60;;
57659;SDS011;43485;45.680;15.702;2024-01-25T04:20:58;5.40;;;3.80;;
57659;SDS011;43485;45.680;15.702;2024-01-25T04:23:25;6.88;;;3.47;;
57659;SDS011;43485;45.680;15.702;2024-01-25T04:25:51;7.57;;;4.95;;
57659;SDS011;43485;45.680;15.702;2024-01-25T04:28:20;8.43;;;3.75;;
57659;SDS011;43485;45.680;15.702;2024-01-25T04:30:46;7.97;;;2.90;;
57659;SDS011;43485;45.680;15.702;2024-01-25T04:33:12;9.40;;;7.07;;
57659;SDS011;43485;45.680;15.702;2024-01-25T04:35:38;9.23;;;4.25;;
57659;SDS011;43485;45.680;15.702;2024-01-25T04:38:04;6.45;;;4.03;;
57659;SDS011;43485;45.680;15.702;2024-01-25T04:40:30;7.85;;;3.97;;
57659;SDS011;43485;45.680;15.702;2024-01-25T04:42:56;6.40;;;3.80;;
57659;SDS011;43485;45.680;15.702;2024-01-25T04:45:23;11.05;;;7.10;;
57659;SDS011;43485;45.680;15.702;2024-01-25T04:47:49;9.18;;;4.72;;
57659;SDS011;43485;45.680;15.702;2024-01-25T04:50:15;11.30;;;4.97;;
57659;SDS011;43485;45.680;15.702;2024-01-25T04:52:41;9.93;;;6.38;;
57659;SDS011;43485;45.680;15.702;2024-01-25T04:55:08;9.25;;;4.60;;
57659;SDS011;43485;45.680;15.702;2024-01-25T05:00:00;12.02;;;6.95;;
57659;SDS011;43485;45.680;15.702;2024-01-25T05:02:26;12.80;;;8.13;;
57659;SDS011;43485;45.680;15.702;2024-01-25T05:04:52;15.48;;;9.32;;
57659;SDS011;43485;45.680;15.702;2024-01-25T05:07:18;11.82;;;7.30;;
57659;SDS011;43485;45.680;15.702;2024-01-25T05:09:44;12.20;;;7.15;;
57659;SDS011;43485;45.680;15.702;2024-01-25T05:12:10;15.15;;;8.68;;
57659;SDS011;43485;45.680;15.702;2024-01-25T05:14:36;11.48;;;6.03;;
57659;SDS011;43485;45.680;15.702;2024-01-25T05:17:02;16.50;;;10.30;;
57659;SDS011;43485;45.680;15.702;2024-01-25T05:19:28;14.20;;;8.80;;
57659;SDS011;43485;45.680;15.702;2024-01-25T05:21:55;11.90;;;9.15;;
57659;SDS011;43485;45.680;15.702;2024-01-25T05:26:46;11.07;;;7.30;;
57659;SDS011;43485;45.680;15.702;2024-01-25T05:29:12;13.57;;;7.22;;
57659;SDS011;43485;45.680;15.702;2024-01-25T05:31:39;18.35;;;6.57;;
57659;SDS011;43485;45.680;15.702;2024-01-25T05:34:05;11.32;;;5.95;;
57659;SDS011;43485;45.680;15.702;2024-01-25T05:36:31;17.98;;;9.77;;
57659;SDS011;43485;45.680;15.702;2024-01-25T05:38:57;13.10;;;7.68;;
57659;SDS011;43485;45.680;15.702;2024-01-25T05:41:23;12.88;;;8.55;;
57659;SDS011;43485;45.680;15.702;2024-01-25T05:43:49;16.70;;;9.07;;
57659;SDS011;43485;45.680;15.702;2024-01-25T05:46:15;12.25;;;5.82;;
57659;SDS011;43485;45.680;15.702;2024-01-25T05:48:41;10.77;;;6.32;;
57659;SDS011;43485;45.680;15.702;2024-01-25T05:51:07;8.77;;;5.07;;
57659;SDS011;43485;45.680;15.702;2024-01-25T05:53:33;16.17;;;7.35;;
57659;SDS011;43485;45.680;15.702;2024-01-25T05:56:00;10.45;;;7.30;;
57659;SDS011;43485;45.680;15.702;2024-01-25T05:58:26;16.40;;;9.63;;
57659;SDS011;43485;45.680;15.702;2024-01-25T06:00:52;22.45;;;10.95;;
57659;SDS011;43485;45.680;15.702;2024-01-25T06:03:18;10.85;;;6.10;;
57659;SDS011;43485;45.680;15.702;2024-01-25T06:05:44;9.00;;;6.03;;
57659;SDS011;43485;45.680;15.702;2024-01-25T06:08:10;7.63;;;4.13;;
57659;SDS011;43485;45.680;15.702;2024-01-25T06:10:36;7.55;;;5.13;;
57659;SDS011;43485;45.680;15.702;2024-01-25T06:13:02;10.30;;;5.97;;
57659;SDS011;43485;45.680;15.702;2024-01-25T06:15:29;14.77;;;9.45;;
57659;SDS011;43485;45.680;15.702;2024-01-25T06:17:55;5.72;;;3.15;;
57659;SDS011;43485;45.680;15.702;2024-01-25T06:20:21;9.60;;;7.00;;
57659;SDS011;43485;45.680;15.702;2024-01-25T06:22:47;7.05;;;4.68;;
57659;SDS011;43485;45.680;15.702;2024-01-25T06:25:14;6.90;;;4.55;;
57659;SDS011;43485;45.680;15.702;2024-01-25T06:27:40;4.28;;;3.50;;
57659;SDS011;43485;45.680;15.702;2024-01-25T06:30:06;11.05;;;6.88;;
57659;SDS011;43485;45.680;15.702;2024-01-25T06:32:32;11.45;;;7.18;;
57659;SDS011;43485;45.680;15.702;2024-01-25T06:34:58;14.52;;;5.97;;
57659;SDS011;43485;45.680;15.702;2024-01-25T06:37:24;14.27;;;8.27;;
57659;SDS011;43485;45.680;15.702;2024-01-25T06:39:50;15.88;;;8.15;;
57659;SDS011;43485;45.680;15.702;2024-01-25T06:42:16;10.43;;;6.35;;
57659;SDS011;43485;45.680;15.702;2024-01-25T06:44:43;11.23;;;6.38;;
57659;SDS011;43485;45.680;15.702;2024-01-25T06:47:09;10.10;;;7.88;;
57659;SDS011;43485;45.680;15.702;2024-01-25T06:49:35;13.82;;;8.35;;
57659;SDS011;43485;45.680;15.702;2024-01-25T06:52:01;9.15;;;6.97;;
57659;SDS011;43485;45.680;15.702;2024-01-25T06:54:28;14.60;;;8.68;;
57659;SDS011;43485;45.680;15.702;2024-01-25T06:56:54;19.00;;;13.65;;
57659;SDS011;43485;45.680;15.702;2024-01-25T06:59:21;61.38;;;14.98;;
57659;SDS011;43485;45.680;15.702;2024-01-25T07:04:13;12.25;;;9.13;;
57659;SDS011;43485;45.680;15.702;2024-01-25T07:06:39;24.08;;;12.18;;
57659;SDS011;43485;45.680;15.702;2024-01-25T07:09:06;15.63;;;10.45;;
57659;SDS011;43485;45.680;15.702;2024-01-25T07:13:58;12.13;;;10.15;;
57659;SDS011;43485;45.680;15.702;2024-01-25T07:16:24;15.23;;;10.20;;
57659;SDS011;43485;45.680;15.702;2024-01-25T07:18:50;25.73;;;9.85;;
57659;SDS011;43485;45.680;15.702;2024-01-25T07:21:16;17.27;;;12.52;;
57659;SDS011;43485;45.680;15.702;2024-01-25T07:23:42;17.13;;;12.27;;
57659;SDS011;43485;45.680;15.702;2024-01-25T07:26:08;24.10;;;15.38;;
57659;SDS011;43485;45.680;15.702;2024-01-25T07:28:34;19.85;;;11.05;;
57659;SDS011;43485;45.680;15.702;2024-01-25T07:31:00;21.35;;;14.18;;
57659;SDS011;43485;45.680;15.702;2024-01-25T07:33:26;29.50;;;18.38;;
57659;SDS011;43485;45.680;15.702;2024-01-25T07:35:52;18.23;;;10.55;;
57659;SDS011;43485;45.680;15.702;2024-01-25T07:38:18;14.80;;;9.80;;
57659;SDS011;43485;45.680;15.702;2024-01-25T07:40:44;10.45;;;7.15;;
57659;SDS011;43485;45.680;15.702;2024-01-25T07:45:37;12.63;;;6.28;;
57659;SDS011;43485;45.680;15.702;2024-01-25T07:48:05;15.88;;;8.10;;
57659;SDS011;43485;45.680;15.702;2024-01-25T07:52:57;12.25;;;6.18;;
57659;SDS011;43485;45.680;15.702;2024-01-25T07:55:26;9.38;;;5.93;;
57659;SDS011;43485;45.680;15.702;2024-01-25T08:00:18;4.97;;;3.92;;
57659;SDS011;43485;45.680;15.702;2024-01-25T08:02:44;7.57;;;4.63;;
57659;SDS011;43485;45.680;15.702;2024-01-25T08:05:10;5.78;;;3.72;;
57659;SDS011;43485;45.680;15.702;2024-01-25T08:10:03;8.75;;;4.45;;
57659;SDS011;43485;45.680;15.702;2024-01-25T08:12:30;8.75;;;4.13;;
57659;SDS011;43485;45.680;15.702;2024-01-25T08:14:56;9.75;;;4.03;;
57659;SDS011;43485;45.680;15.702;2024-01-25T08:17:22;9.57;;;6.15;;
57659;SDS011;43485;45.680;15.702;2024-01-25T08:19:48;9.18;;;6.25;;
57659;SDS011;43485;45.680;15.702;2024-01-25T08:22:14;18.45;;;10.85;;
57659;SDS011;43485;45.680;15.702;2024-01-25T08:24:40;30.10;;;11.40;;
57659;SDS011;43485;45.680;15.702;2024-01-25T08:27:07;29.17;;;13.15;;
57659;SDS011;43485;45.680;15.702;2024-01-25T08:29:33;12.13;;;8.25;;
57659;SDS011;43485;45.680;15.702;2024-01-25T08:31:59;13.75;;;8.65;;
57659;SDS011;43485;45.680;15.702;2024-01-25T08:34:25;15.07;;;9.35;;
57659;SDS011;43485;45.680;15.702;2024-01-25T08:36:51;8.57;;;6.25;;
57659;SDS011;43485;45.680;15.702;2024-01-25T08:39:17;18.60;;;6.88;;
57659;SDS011;43485;45.680;15.702;2024-01-25T08:41:43;18.85;;;8.65;;
57659;SDS011;43485;45.680;15.702;2024-01-25T08:44:10;8.18;;;4.82;;
57659;SDS011;43485;45.680;15.702;2024-01-25T08:46:36;12.50;;;5.40;;
57659;SDS011;43485;45.680;15.702;2024-01-25T08:49:03;15.38;;;9.05;;
57659;SDS011;43485;45.680;15.702;2024-01-25T08:51:33;14.65;;;8.13;;
57659;SDS011;43485;45.680;15.702;2024-01-25T08:53:59;9.85;;;8.18;;
57659;SDS011;43485;45.680;15.702;2024-01-25T08:56:26;14.05;;;6.15;;
57659;SDS011;43485;45.680;15.702;2024-01-25T08:58:52;11.52;;;8.88;;
57659;SDS011;43485;45.680;15.702;2024-01-25T09:01:18;14.65;;;8.82;;
57659;SDS011;43485;45.680;15.702;2024-01-25T09:03:44;11.68;;;8.30;;
57659;SDS011;43485;45.680;15.702;2024-01-25T09:06:10;11.88;;;6.30;;
57659;SDS011;43485;45.680;15.702;2024-01-25T09:08:36;13.02;;;10.38;;
57659;SDS011;43485;45.680;15.702;2024-01-25T09:11:02;11.95;;;8.73;;
57659;SDS011;43485;45.680;15.702;2024-01-25T09:13:28;17.77;;;12.10;;
57659;SDS011;43485;45.680;15.702;2024-01-25T09:15:55;18.85;;;11.15;;
57659;SDS011;43485;45.680;15.702;2024-01-25T09:18:21;33.78;;;15.32;;
57659;SDS011;43485;45.680;15.702;2024-01-25T09:20:47;21.25;;;10.80;;
57659;SDS011;43485;45.680;15.702;2024-01-25T09:23:14;24.17;;;15.75;;
57659;SDS011;43485;45.680;15.702;2024-01-25T09:25:41;31.10;;;18.23;;
57659;SDS011;43485;45.680;15.702;2024-01-25T09:28:10;23.05;;;13.15;;
57659;SDS011;43485;45.680;15.702;2024-01-25T09:30:54;17.67;;;11.32;;
57659;SDS011;43485;45.680;15.702;2024-01-25T09:33:21;13.13;;;10.60;;
57659;SDS011;43485;45.680;15.702;2024-01-25T09:35:47;12.18;;;6.70;;
57659;SDS011;43485;45.680;15.702;2024-01-25T09:38:13;9.90;;;5.63;;
57659;SDS011;43485;45.680;15.702;2024-01-25T09:43:05;4.18;;;2.22;;
57659;SDS011;43485;45.680;15.702;2024-01-25T09:45:31;6.93;;;2.85;;
57659;SDS011;43485;45.680;15.702;2024-01-25T09:50:23;4.50;;;2.97;;
57659;SDS011;43485;45.680;15.702;2024-01-25T09:52:52;4.88;;;3.17;;
57659;SDS011;43485;45.680;15.702;2024-01-25T09:55:21;6.70;;;3.97;;
57659;SDS011;43485;45.680;15.702;2024-01-25T09:57:52;10.15;;;6.68;;
57659;SDS011;43485;45.680;15.702;2024-01-25T10:00:37;14.35;;;8.38;;
57659;SDS011;43485;45.680;15.702;2024-01-25T10:03:04;7.05;;;4.38;;
57659;SDS011;43485;45.680;15.702;2024-01-25T10:05:30;13.45;;;5.00;;
57659;SDS011;43485;45.680;15.702;2024-01-25T10:07:57;12.63;;;7.45;;
57659;SDS011;43485;45.680;15.702;2024-01-25T10:10:26;6.13;;;4.47;;
57659;SDS011;43485;45.680;15.702;2024-01-25T10:12:55;12.55;;;5.72;;
57659;SDS011;43485;45.680;15.702;2024-01-25T10:15:22;5.03;;;3.08;;
57659;SDS011;43485;45.680;15.702;2024-01-25T10:17:49;9.07;;;4.53;;
57659;SDS011;43485;45.680;15.702;2024-01-25T10:20:16;4.00;;;2.40;;
57659;SDS011;43485;45.680;15.702;2024-01-25T10:22:42;7.45;;;2.13;;
57659;SDS011;43485;45.680;15.702;2024-01-25T10:27:53;3.50;;;1.73;;
57659;SDS011;43485;45.680;15.702;2024-01-25T10:30:19;2.58;;;1.60;;
57659;SDS011;43485;45.680;15.702;2024-01-25T10:32:46;3.30;;;1.67;;
57659;SDS011;43485;45.680;15.702;2024-01-25T10:37:39;13.27;;;2.90;;
57659;SDS011;43485;45.680;15.702;2024-01-25T10:40:07;1.90;;;1.10;;
57659;SDS011;43485;45.680;15.702;2024-01-25T10:42:35;6.85;;;2.33;;
57659;SDS011;43485;45.680;15.702;2024-01-25T10:45:01;3.88;;;2.45;;
57659;SDS011;43485;45.680;15.702;2024-01-25T10:47:28;3.65;;;1.40;;
57659;SDS011;43485;45.680;15.702;2024-01-25T10:49:59;4.47;;;2.40;;
57659;SDS011;43485;45.680;15.702;2024-01-25T10:52:27;2.85;;;2.60;;
57659;SDS011;43485;45.680;15.702;2024-01-25T10:54:55;4.97;;;3.25;;
57659;SDS011;43485;45.680;15.702;2024-01-25T10:57:21;5.60;;;4.03;;
57659;SDS011;43485;45.680;15.702;2024-01-25T10:59:48;5.40;;;3.08;;
57659;SDS011;43485;45.680;15.702;2024-01-25T11:02:17;2.83;;;1.35;;
57659;SDS011;43485;45.680;15.702;2024-01-25T11:05:05;1.08;;;0.50;;
57659;SDS011;43485;45.680;15.702;2024-01-25T11:07:48;2.00;;;0.75;;
57659;SDS011;43485;45.680;15.702;2024-01-25T11:10:16;1.67;;;1.27;;
57659;SDS011;43485;45.680;15.702;2024-01-25T11:13:02;0.65;;;0.45;;
57659;SDS011;43485;45.680;15.702;2024-01-25T11:15:31;0.28;;;0.20;;
57659;SDS011;43485;45.680;15.702;2024-01-25T11:18:00;1.27;;;0.80;;
57659;SDS011;43485;45.680;15.702;2024-01-25T11:20:28;4.32;;;1.55;;
57659;SDS011;43485;45.680;15.702;2024-01-25T11:25:43;0.75;;;0.65;;
57659;SDS011;43485;45.680;15.702;2024-01-25T11:28:11;2.08;;;0.80;;
57659;SDS011;43485;45.680;15.702;2024-01-25T11:31:00;4.80;;;1.40;;
57659;SDS011;43485;45.680;15.702;2024-01-25T11:33:26;6.95;;;1.13;;
57659;SDS011;43485;45.680;15.702;2024-01-25T11:38:37;0.70;;;0.70;;
57659;SDS011;43485;45.680;15.702;2024-01-25T11:41:03;4.18;;;1.98;;
57659;SDS011;43485;45.680;15.702;2024-01-25T11:43:29;1.60;;;0.88;;
57659;SDS011;43485;45.680;15.702;2024-01-25T11:45:55;1.48;;;0.90;;
57659;SDS011;43485;45.680;15.702;2024-01-25T11:48:21;2.35;;;1.23;;
57659;SDS011;43485;45.680;15.702;2024-01-25T11:50:47;1.52;;;0.85;;
57659;SDS011;43485;45.680;15.702;2024-01-25T11:53:14;4.35;;;0.77;;
57659;SDS011;43485;45.680;15.702;2024-01-25T11:55:40;2.65;;;1.65;;
57659;SDS011;43485;45.680;15.702;2024-01-25T11:58:06;5.32;;;2.03;;
57659;SDS011;43485;45.680;15.702;2024-01-25T12:00:33;2.38;;;1.25;;
57659;SDS011;43485;45.680;15.702;2024-01-25T12:02:59;1.80;;;0.68;;
57659;SDS011;43485;45.680;15.702;2024-01-25T12:05:25;2.70;;;1.90;;
57659;SDS011;43485;45.680;15.702;2024-01-25T12:07:51;3.63;;;1.75;;
57659;SDS011;43485;45.680;15.702;2024-01-25T12:10:18;0.40;;;0.40;;
57659;SDS011;43485;45.680;15.702;2024-01-25T12:12:44;1.65;;;1.27;;
57659;SDS011;43485;45.680;15.702;2024-01-25T12:15:10;3.75;;;2.67;;
57659;SDS011;43485;45.680;15.702;2024-01-25T12:20:03;1.63;;;0.88;;
57659;SDS011;43485;45.680;15.702;2024-01-25T12:22:36;1.65;;;0.63;;
57659;SDS011;43485;45.680;15.702;2024-01-25T12:25:05;0.40;;;0.40;;
57659;SDS011;43485;45.680;15.702;2024-01-25T12:27:34;0.20;;;0.20;;
57659;SDS011;43485;45.680;15.702;2024-01-25T12:30:02;0.57;;;0.52;;
57659;SDS011;43485;45.680;15.702;2024-01-25T12:32:29;0.73;;;0.63;;
57659;SDS011;43485;45.680;15.702;2024-01-25T12:34:55;0.45;;;0.28;;
57659;SDS011;43485;45.680;15.702;2024-01-25T12:37:40;0.43;;;0.38;;
57659;SDS011;43485;45.680;15.702;2024-01-25T12:40:06;2.08;;;1.80;;
57659;SDS011;43485;45.680;15.702;2024-01-25T12:42:33;0.28;;;0.25;;
57659;SDS011;43485;45.680;15.702;2024-01-25T12:44:59;0.45;;;0.40;;
57659;SDS011;43485;45.680;15.702;2024-01-25T12:47:25;8.60;;;1.48;;
57659;SDS011;43485;45.680;15.702;2024-01-25T12:52:17;0.52;;;0.43;;
57659;SDS011;43485;45.680;15.702;2024-01-25T12:54:43;2.25;;;1.25;;
57659;SDS011;43485;45.680;15.702;2024-01-25T12:57:09;2.53;;;0.85;;
57659;SDS011;43485;45.680;15.702;2024-01-25T12:59:36;1.20;;;0.65;;
57659;SDS011;43485;45.680;15.702;2024-01-25T13:02:03;3.28;;;1.35;;
57659;SDS011;43485;45.680;15.702;2024-01-25T13:04:32;1.95;;;1.15;;
57659;SDS011;43485;45.680;15.702;2024-01-25T13:06:58;2.20;;;1.25;;
57659;SDS011;43485;45.680;15.702;2024-01-25T13:09:24;1.15;;;0.77;;
57659;SDS011;43485;45.680;15.702;2024-01-25T13:14:17;0.80;;;0.80;;
57659;SDS011;43485;45.680;15.702;2024-01-25T13:16:43;0.60;;;0.43;;
57659;SDS011;43485;45.680;15.702;2024-01-25T13:21:37;0.43;;;0.40;;
57659;SDS011;43485;45.680;15.702;2024-01-25T13:24:04;0.77;;;0.68;;
57659;SDS011;43485;45.680;15.702;2024-01-25T13:26:32;0.50;;;0.50;;
57659;SDS011;43485;45.680;15.702;2024-01-25T13:28:59;0.20;;;0.20;;
57659;SDS011;43485;45.680;15.702;2024-01-25T13:31:25;1.17;;;1.08;;
57659;SDS011;43485;45.680;15.702;2024-01-25T13:33:51;0.43;;;0.38;;
57659;SDS011;43485;45.680;15.702;2024-01-25T13:36:17;1.23;;;0.77;;
57659;SDS011;43485;45.680;15.702;2024-01-25T13:38:43;0.38;;;0.38;;
57659;SDS011;43485;45.680;15.702;2024-01-25T13:41:09;0.45;;;0.40;;
57659;SDS011;43485;45.680;15.702;2024-01-25T13:43:35;1.52;;;0.55;;
57659;SDS011;43485;45.680;15.702;2024-01-25T13:46:01;1.38;;;0.68;;
57659;SDS011;43485;45.680;15.702;2024-01-25T13:48:27;1.08;;;0.90;;
57659;SDS011;43485;45.680;15.702;2024-01-25T13:50:53;0.73;;;0.73;;
57659;SDS011;43485;45.680;15.702;2024-01-25T13:55:45;5.88;;;2.28;;
57659;SDS011;43485;45.680;15.702;2024-01-25T13:58:12;1.35;;;0.82;;
57659;SDS011;43485;45.680;15.702;2024-01-25T14:00:38;1.23;;;0.73;;
57659;SDS011;43485;45.680;15.702;2024-01-25T14:03:04;0.88;;;0.73;;
57659;SDS011;43485;45.680;15.702;2024-01-25T14:07:57;0.50;;;0.50;;
57659;SDS011;43485;45.680;15.702;2024-01-25T14:10:24;0.80;;;0.57;;
57659;SDS011;43485;45.680;15.702;2024-01-25T14:12:52;1.38;;;1.08;;
57659;SDS011;43485;45.680;15.702;2024-01-25T14:15:19;1.27;;;0.70;;
57659;SDS011;43485;45.680;15.702;2024-01-25T14:17:45;1.27;;;0.43;;
57659;SDS011;43485;45.680;15.702;2024-01-25T14:22:38;2.22;;;2.03;;
57659;SDS011;43485;45.680;15.702;2024-01-25T14:27:30;1.70;;;0.68;;
57659;SDS011;43485;45.680;15.702;2024-01-25T14:29:58;1.75;;;0.85;;
57659;SDS011;43485;45.680;15.702;2024-01-25T14:32:25;2.25;;;1.35;;
57659;SDS011;43485;45.680;15.702;2024-01-25T14:34:51;1.30;;;0.95;;
57659;SDS011;43485;45.680;15.702;2024-01-25T14:37:17;1.90;;;0.77;;
57659;SDS011;43485;45.680;15.702;2024-01-25T14:42:09;1.35;;;1.08;;
57659;SDS011;43485;45.680;15.702;2024-01-25T14:44:55;5.28;;;2.30;;
57659;SDS011;43485;45.680;15.702;2024-01-25T14:52:32;2.33;;;1.35;;
57659;SDS011;43485;45.680;15.702;2024-01-25T14:57:44;0.50;;;0.32;;
57659;SDS011;43485;45.680;15.702;2024-01-25T15:00:10;1.70;;;0.82;;
57659;SDS011;43485;45.680;15.702;2024-01-25T15:02:43;0.20;;;0.20;;
57659;SDS011;43485;45.680;15.702;2024-01-25T15:05:09;0.73;;;0.50;;
57659;SDS011;43485;45.680;15.702;2024-01-25T15:07:35;0.20;;;0.20;;
57659;SDS011;43485;45.680;15.702;2024-01-25T15:10:01;0.28;;;0.28;;
57659;SDS011;43485;45.680;15.702;2024-01-25T15:12:28;0.28;;;0.20;;
57659;SDS011;43485;45.680;15.702;2024-01-25T15:14:54;0.80;;;0.38;;
57659;SDS011;43485;45.680;15.702;2024-01-25T15:17:20;1.23;;;1.13;;
57659;SDS011;43485;45.680;15.702;2024-01-25T15:19:46;0.30;;;0.30;;
57659;SDS011;43485;45.680;15.702;2024-01-25T15:22:12;1.20;;;0.60;;
57659;SDS011;43485;45.680;15.702;2024-01-25T15:24:38;0.65;;;0.40;;
57659;SDS011;43485;45.680;15.702;2024-01-25T15:27:04;3.88;;;1.70;;
57659;SDS011;43485;45.680;15.702;2024-01-25T15:29:31;4.18;;;2.13;;
57659;SDS011;43485;45.680;15.702;2024-01-25T15:31:57;1.73;;;1.52;;
57659;SDS011;43485;45.680;15.702;2024-01-25T15:34:23;6.45;;;1.08;;
57659;SDS011;43485;45.680;15.702;2024-01-25T15:36:49;2.47;;;1.02;;
57659;SDS011;43485;45.680;15.702;2024-01-25T15:39:15;2.17;;;1.02;;
57659;SDS011;43485;45.680;15.702;2024-01-25T15:41:43;3.88;;;2.05;;
57659;SDS011;43485;45.680;15.702;2024-01-25T15:44:10;1.45;;;1.23;;
57659;SDS011;43485;45.680;15.702;2024-01-25T15:46:36;2.00;;;1.60;;